createdAt,value
2019-05-13T00:00:53.870Z,97630.27
2019-05-13T00:03:20.033Z,97632.16
2019-05-13T00:05:46.203Z,97628.31
2019-05-13T00:08:13.943Z,97627.65
2019-05-13T00:10:40.449Z,97632.63
2019-05-13T00:13:06.589Z,97633.45
2019-05-13T00:15:34.046Z,97633.55
2019-05-13T00:18:00.490Z,97634.03
2019-05-13T00:20:26.753Z,97631.00
2019-05-13T00:22:53.817Z,97639.47
2019-05-13T00:25:20.271Z,97636.08
2019-05-13T00:27:46.388Z,97638.34
2019-05-13T00:30:14.566Z,97643.28
2019-05-13T00:32:44.320Z,97642.55
2019-05-13T00:35:14.231Z,97644.72
2019-05-13T00:37:44.034Z,97639.83
2019-05-13T00:40:09.954Z,97637.39
2019-05-13T00:42:36.219Z,97654.55
2019-05-13T00:45:04.386Z,97653.32
2019-05-13T00:47:30.541Z,97654.27
2019-05-13T00:49:57.707Z,97653.99
2019-05-13T00:52:23.975Z,97656.41
2019-05-13T00:54:50.267Z,97663.55
2019-05-13T00:57:16.552Z,97660.25
2019-05-13T00:59:44.263Z,97661.02
2019-05-13T01:02:10.580Z,97662.41
2019-05-13T01:04:36.745Z,97663.17
2019-05-13T01:07:04.497Z,97660.46
2019-05-13T01:09:30.783Z,97659.52
2019-05-13T01:11:57.050Z,97660.00
2019-05-13T01:14:23.588Z,97659.23
2019-05-13T01:16:49.864Z,97655.03
2019-05-13T01:19:16.137Z,97656.34
2019-05-13T01:21:43.453Z,97667.66
2019-05-13T01:24:14.195Z,97663.09
2019-05-13T01:26:39.864Z,97670.69
2019-05-13T01:29:06.263Z,97670.59
2019-05-13T01:31:34.385Z,97669.83
2019-05-13T01:34:00.619Z,97671.33
2019-05-13T01:36:26.908Z,97674.91
2019-05-13T01:38:54.073Z,97669.06
2019-05-13T01:41:21.200Z,97669.34
2019-05-13T01:43:47.325Z,97667.94
2019-05-13T01:46:13.695Z,97675.22
2019-05-13T01:48:39.916Z,97669.42
2019-05-13T01:51:06.222Z,97678.39
2019-05-13T01:53:33.606Z,97675.66
2019-05-13T01:56:00.316Z,97675.56
2019-05-13T01:58:26.645Z,97674.43
2019-05-13T02:00:55.225Z,97668.23
2019-05-13T02:03:21.120Z,97675.78
2019-05-13T02:05:47.284Z,97679.81
2019-05-13T02:08:14.375Z,97683.00
2019-05-13T02:10:54.831Z,97688.97
2019-05-13T02:13:24.539Z,97695.61
2019-05-13T02:15:50.435Z,97692.80
2019-05-13T02:18:16.687Z,97694.02
2019-05-13T02:20:44.390Z,97696.23
2019-05-13T02:23:10.775Z,97695.50
2019-05-13T02:25:37.445Z,97695.30
2019-05-13T02:28:09.283Z,97696.96
2019-05-13T02:30:34.884Z,97701.23
2019-05-13T02:33:02.760Z,97703.34
2019-05-13T02:35:32.261Z,97700.77
2019-05-13T02:38:16.891Z,97698.00
2019-05-13T02:40:25.491Z,97701.13
2019-05-13T02:42:52.327Z,97701.38
2019-05-13T02:45:18.705Z,97705.02
2019-05-13T02:47:45.039Z,97706.74
2019-05-13T02:50:12.894Z,97699.67
2019-05-13T02:52:39.599Z,97705.72
2019-05-13T02:55:06.114Z,97709.44
2019-05-13T02:57:32.942Z,97713.05
2019-05-13T02:59:59.425Z,97706.66
2019-05-13T03:02:25.637Z,97709.60
2019-05-13T03:04:52.494Z,97718.16
2019-05-13T03:07:18.882Z,97723.79
2019-05-13T03:09:44.991Z,97717.11
2019-05-13T03:12:13.057Z,97717.80
2019-05-13T03:14:44.758Z,97717.80
2019-05-13T03:17:12.829Z,97718.33
2019-05-13T03:19:37.410Z,97729.13
2019-05-13T03:22:03.610Z,97731.27
2019-05-13T03:24:32.973Z,97731.27
2019-05-13T03:26:57.982Z,97731.13
2019-05-13T03:29:24.105Z,97735.37
2019-05-13T03:31:54.909Z,97729.59
2019-05-13T03:34:18.408Z,97733.92
2019-05-13T03:36:46.499Z,97740.13
2019-05-13T03:39:16.238Z,97742.38
2019-05-13T03:41:45.729Z,97740.20
2019-05-13T03:44:13.501Z,97743.91
2019-05-13T03:46:42.575Z,97742.38
2019-05-13T03:49:13.270Z,97746.39
2019-05-13T03:51:38.526Z,97742.09
2019-05-13T03:54:05.882Z,97739.78
2019-05-13T03:56:32.909Z,97750.47
2019-05-13T03:59:02.490Z,97755.00
2019-05-13T04:01:28.046Z,97753.77
2019-05-13T04:03:54.475Z,97763.37
2019-05-13T04:06:23.192Z,97755.00
2019-05-13T04:08:48.913Z,97751.93
2019-05-13T04:11:15.119Z,97754.14
2019-05-13T04:13:42.932Z,97760.16
2019-05-13T04:16:12.800Z,97763.06
2019-05-13T04:18:38.340Z,97761.69
2019-05-13T04:21:04.539Z,97766.39
2019-05-13T04:23:32.339Z,97761.08
2019-05-13T04:25:58.854Z,97775.39
2019-05-13T04:28:25.231Z,97774.01
2019-05-13T04:30:52.543Z,97774.79
2019-05-13T04:33:22.539Z,97769.86
2019-05-13T04:35:47.584Z,97765.00
2019-05-13T04:38:13.819Z,97766.23
2019-05-13T04:40:42.390Z,97761.86
2019-05-13T04:43:08.509Z,97765.78
2019-05-13T04:45:34.691Z,97773.92
2019-05-13T04:48:03.207Z,97777.25
2019-05-13T04:50:32.694Z,97775.86
2019-05-13T04:52:57.793Z,97779.23
2019-05-13T04:55:24.270Z,97773.17
2019-05-13T04:57:53.325Z,97782.70
2019-05-13T05:00:42.886Z,97776.61
2019-05-13T05:03:13.678Z,97783.64
2019-05-13T05:05:47.736Z,97784.39
2019-05-13T05:08:47.373Z,97784.64
2019-05-13T05:11:25.526Z,97789.72
2019-05-13T05:14:13.912Z,97796.11
2019-05-13T05:17:12.447Z,97800.78
2019-05-13T05:19:52.249Z,97797.72
2019-05-13T05:22:27.703Z,97801.03
2019-05-13T05:25:16.114Z,97802.42
2019-05-13T05:28:04.214Z,97810.57
2019-05-13T05:30:51.695Z,97806.19
2019-05-13T05:33:27.454Z,97813.64
2019-05-13T05:36:01.797Z,97812.81
2019-05-13T05:38:55.961Z,97813.64
2019-05-13T05:41:25.941Z,97816.66
2019-05-13T05:43:53.539Z,97815.80
2019-05-13T05:46:22.618Z,97807.17
2019-05-13T05:48:53.015Z,97810.34
2019-05-13T05:51:22.134Z,97809.94
2019-05-13T05:53:51.669Z,97818.42
2019-05-13T05:56:21.863Z,97819.73
2019-05-13T05:58:48.962Z,97820.81
2019-05-13T06:01:15.560Z,97820.95
2019-05-13T06:03:43.347Z,97824.41
2019-05-13T06:06:12.384Z,97825.50
2019-05-13T06:08:41.254Z,97828.77
2019-05-13T06:11:07.288Z,97828.70
2019-05-13T06:13:35.368Z,97825.17
2019-05-13T06:16:01.900Z,97832.83
2019-05-13T06:18:28.178Z,97833.65
2019-05-13T06:20:54.504Z,97829.21
2019-05-13T06:23:22.207Z,97838.45
2019-05-13T06:25:48.674Z,97832.81
2019-05-13T06:28:14.832Z,97831.43
2019-05-13T06:30:41.605Z,97825.39
2019-05-13T06:33:08.409Z,97832.84
2019-05-13T06:35:34.625Z,97831.31
2019-05-13T06:38:01.451Z,97833.94
2019-05-13T06:40:27.774Z,97840.00
2019-05-13T06:42:53.940Z,97846.84
2019-05-13T06:45:21.593Z,97841.19
2019-05-13T06:47:48.038Z,97837.88
2019-05-13T06:50:14.498Z,97840.05
2019-05-13T06:52:42.499Z,97843.77
2019-05-13T06:55:11.381Z,97846.20
2019-05-13T06:57:37.080Z,97846.61
2019-05-13T07:00:06.739Z,97838.61
2019-05-13T07:02:33.050Z,97843.45
2019-05-13T07:04:59.270Z,97840.09
2019-05-13T07:07:25.487Z,97842.14
2019-05-13T07:09:51.884Z,97839.74
2019-05-13T07:12:18.334Z,97843.41
2019-05-13T07:14:44.529Z,97848.00
2019-05-13T07:17:12.360Z,97847.30
2019-05-13T07:19:41.238Z,97848.75
2019-05-13T07:22:06.898Z,97860.30
2019-05-13T07:24:33.164Z,97852.42
2019-05-13T07:27:01.837Z,97858.98
2019-05-13T07:29:27.884Z,97856.95
2019-05-13T07:31:54.125Z,97851.70
2019-05-13T07:34:24.547Z,97848.55
2019-05-13T07:36:48.633Z,97852.49
2019-05-13T07:39:15.145Z,97847.14
2019-05-13T07:41:43.066Z,97843.38
2019-05-13T07:44:11.838Z,97847.81
2019-05-13T07:46:37.725Z,97841.61
2019-05-13T07:49:03.874Z,97842.38
2019-05-13T07:51:31.668Z,97840.11
2019-05-13T07:53:58.153Z,97836.06
2019-05-13T07:56:24.321Z,97839.45
2019-05-13T07:58:52.385Z,97850.64
2019-05-13T08:01:18.869Z,97844.34
2019-05-13T08:03:45.049Z,97842.94
2019-05-13T08:06:11.349Z,97841.52
2019-05-13T08:08:37.611Z,97837.84
2019-05-13T08:11:04.094Z,97836.86
2019-05-13T08:13:31.455Z,97841.67
2019-05-13T08:15:57.843Z,97843.22
2019-05-13T08:18:24.209Z,97834.69
2019-05-13T08:20:52.466Z,97836.86
2019-05-13T08:23:18.677Z,97833.94
2019-05-13T08:25:44.912Z,97837.56
2019-05-13T08:28:12.316Z,97843.77
2019-05-13T08:30:38.774Z,97842.89
2019-05-13T08:33:05.107Z,97840.25
2019-05-13T08:35:41.578Z,97843.45
2019-05-13T08:38:12.041Z,97841.68
2019-05-13T08:40:38.533Z,97835.25
2019-05-13T08:43:06.887Z,97843.66
2019-05-13T08:45:33.341Z,97835.20
2019-05-13T08:48:01.770Z,97832.50
2019-05-13T08:50:27.803Z,97833.09
2019-05-13T08:52:53.919Z,97838.94
2019-05-13T08:55:21.487Z,97842.80
2019-05-13T08:57:47.745Z,97841.93
2019-05-13T09:00:18.068Z,97829.34
2019-05-13T09:02:44.272Z,97832.89
2019-05-13T09:05:12.026Z,97828.03
2019-05-13T09:07:41.140Z,97825.03
2019-05-13T09:10:06.973Z,97821.44
2019-05-13T09:12:37.064Z,97818.58
2019-05-13T09:15:03.278Z,97816.25
2019-05-13T09:17:31.861Z,97824.57
2019-05-13T09:19:58.143Z,97821.72
2019-05-13T09:22:24.474Z,97814.02
2019-05-13T09:24:52.988Z,97821.33
2019-05-13T09:27:18.845Z,97822.95
2019-05-13T09:29:44.955Z,97819.92
2019-05-13T09:32:12.220Z,97823.69
2019-05-13T09:34:38.739Z,97821.55
2019-05-13T09:37:05.124Z,97819.02
2019-05-13T09:39:32.344Z,97813.22
2019-05-13T09:41:58.801Z,97821.30
2019-05-13T09:44:25.040Z,97817.38
2019-05-13T09:46:51.790Z,97827.26
2019-05-13T09:49:20.041Z,97830.00
2019-05-13T09:51:46.110Z,97822.12
2019-05-13T09:54:12.288Z,97821.06
2019-05-13T09:56:38.510Z,97824.39
2019-05-13T09:59:04.640Z,97828.52
2019-05-13T10:01:32.049Z,97828.14
2019-05-13T10:03:58.394Z,97821.33
2019-05-13T10:06:24.615Z,97815.84
2019-05-13T10:08:52.688Z,97817.29
2019-05-13T10:11:21.534Z,97814.72
2019-05-13T10:13:47.091Z,97810.35
2019-05-13T10:16:13.337Z,97811.16
2019-05-13T10:18:41.866Z,97801.55
2019-05-13T10:21:07.627Z,97800.44
2019-05-13T10:23:34.039Z,97802.78
2019-05-13T10:26:04.132Z,97802.84
2019-05-13T10:28:31.950Z,97810.44
2019-05-13T10:30:58.694Z,97811.39
2019-05-13T10:33:25.800Z,97802.73
2019-05-13T10:35:52.770Z,97796.23
2019-05-13T10:38:22.061Z,97797.27
2019-05-13T10:40:48.331Z,97811.81
2019-05-13T10:43:29.473Z,97811.22
2019-05-13T10:45:43.031Z,97804.25
2019-05-13T10:48:10.396Z,97810.26
2019-05-13T10:50:37.582Z,97809.19
2019-05-13T10:53:03.942Z,97808.44
2019-05-13T10:55:32.455Z,97799.34
2019-05-13T10:57:58.234Z,97792.92
2019-05-13T11:00:42.371Z,97798.95
2019-05-13T11:03:08.571Z,97815.35
2019-05-13T11:05:41.075Z,97800.04
2019-05-13T11:08:04.173Z,97802.52
2019-05-13T11:10:32.567Z,97796.63
2019-05-13T11:13:01.602Z,97796.23
2019-05-13T11:15:32.813Z,97794.18
2019-05-13T11:17:56.152Z,97791.82
2019-05-13T11:20:22.418Z,97790.03
2019-05-13T11:22:48.906Z,97786.56
2019-05-13T11:25:15.565Z,97784.98
2019-05-13T11:27:42.241Z,97784.41
2019-05-13T11:30:08.968Z,97782.71
2019-05-13T11:32:35.309Z,97782.71
2019-05-13T11:35:02.189Z,97772.59
2019-05-13T11:37:32.053Z,97772.62
2019-05-13T11:39:58.386Z,97772.77
2019-05-13T11:42:24.760Z,97771.45
2019-05-13T11:44:52.723Z,97763.30
2019-05-13T11:47:19.235Z,97758.84
2019-05-13T11:49:45.480Z,97751.75
2019-05-13T11:52:12.068Z,97750.84
2019-05-13T11:54:38.564Z,97762.15
2019-05-13T11:57:06.318Z,97755.70
2019-05-13T11:59:33.251Z,97751.92
2019-05-13T12:02:04.026Z,97754.73
2019-05-13T12:04:27.555Z,97753.55
2019-05-13T12:06:54.704Z,97745.59
2019-05-13T12:09:22.322Z,97748.41
2019-05-13T12:11:48.613Z,97750.92
2019-05-13T12:14:39.327Z,97750.92
2019-05-13T12:16:43.197Z,97747.45
2019-05-13T12:19:11.850Z,97743.78
2019-05-13T12:21:42.066Z,97738.70
2019-05-13T12:24:10.430Z,97731.78
2019-05-13T12:26:34.197Z,97724.41
2019-05-13T12:29:02.834Z,97721.39
2019-05-13T12:31:33.366Z,97720.09
2019-05-13T12:33:57.402Z,97722.95
2019-05-13T12:36:24.403Z,97718.55
2019-05-13T12:38:53.502Z,97713.41
2019-05-13T12:41:22.762Z,97721.27
2019-05-13T12:43:47.410Z,97714.91
2019-05-13T12:46:13.716Z,97711.73
2019-05-13T12:48:40.877Z,97710.73
2019-05-13T12:51:07.150Z,97704.56
2019-05-13T12:53:33.480Z,97701.97
2019-05-13T12:56:03.158Z,97710.53
2019-05-13T12:58:28.219Z,97701.49
2019-05-13T13:00:54.391Z,97699.53
2019-05-13T13:03:23.188Z,97700.28
2019-05-13T13:05:48.978Z,97704.47
2019-05-13T13:08:28.996Z,97693.38
2019-05-13T13:10:43.817Z,97687.16
2019-05-13T13:13:10.270Z,97681.88
2019-05-13T13:15:42.259Z,97681.09
2019-05-13T13:18:05.263Z,97679.73
2019-05-13T13:20:41.633Z,97673.91
2019-05-13T13:23:04.407Z,97678.47
2019-05-13T13:25:29.232Z,97669.58
2019-05-13T13:28:10.094Z,97682.94
2019-05-13T13:30:24.587Z,97677.27
2019-05-13T13:32:54.891Z,97678.94
2019-05-13T13:35:21.251Z,97675.57
2019-05-13T13:37:47.512Z,97675.95
2019-05-13T13:40:14.013Z,97669.16
2019-05-13T13:42:43.064Z,97676.05
2019-05-13T13:45:10.244Z,97671.80
2019-05-13T13:47:36.501Z,97680.05
2019-05-13T13:50:05.538Z,97674.50
2019-05-13T13:52:33.670Z,97670.84
2019-05-13T13:55:06.219Z,97673.00
2019-05-13T13:57:28.125Z,97668.56
2019-05-13T14:02:25.245Z,97674.52
2019-05-13T14:04:54.142Z,97677.69
2019-05-13T14:06:59.245Z,97674.75
2019-05-13T14:07:31.218Z,97671.05
2019-05-13T14:09:47.028Z,97666.90
2019-05-13T14:12:13.304Z,97655.25
2019-05-13T14:14:41.458Z,97662.09
2019-05-13T14:17:07.923Z,97657.66
2019-05-13T14:19:34.197Z,97662.83
2019-05-13T14:22:01.720Z,97657.77
2019-05-13T14:24:28.046Z,97652.83
2019-05-13T14:26:55.079Z,97651.73
2019-05-13T14:29:36.303Z,97650.19
2019-05-13T14:31:52.042Z,97648.77
2019-05-13T14:34:18.345Z,97639.85
2019-05-13T14:36:44.800Z,97637.70
2019-05-13T14:39:12.005Z,97647.32
2019-05-13T14:41:38.433Z,97651.87
2019-05-13T14:44:07.882Z,97648.45
2019-05-13T14:46:46.657Z,97643.92
2019-05-13T14:49:02.822Z,97643.95
2019-05-13T14:51:29.321Z,97643.02
2019-05-13T14:53:55.553Z,97630.50
2019-05-13T14:56:22.232Z,97630.87
2019-05-13T14:58:48.457Z,97633.83
2019-05-13T15:01:19.818Z,97623.32
2019-05-13T15:03:43.153Z,97625.11
2019-05-13T15:06:11.785Z,97619.66
2019-05-13T15:08:37.926Z,97623.14
2019-05-13T15:11:04.220Z,97625.31
2019-05-13T15:13:31.882Z,97626.94
2019-05-13T15:15:58.783Z,97636.80
2019-05-13T15:18:25.032Z,97632.11
2019-05-13T15:20:52.925Z,97619.69
2019-05-13T15:23:22.090Z,97618.25
2019-05-13T15:25:47.957Z,97619.40
2019-05-13T15:28:14.176Z,97619.89
2019-05-13T15:30:42.075Z,97618.97
2019-05-13T15:33:08.775Z,97613.37
2019-05-13T15:35:35.067Z,97615.41
2019-05-13T15:38:02.104Z,97611.95
2019-05-13T15:40:31.088Z,97612.40
2019-05-13T15:42:56.838Z,97615.63
2019-05-13T15:45:23.266Z,97606.66
2019-05-13T15:47:51.555Z,97603.17
2019-05-13T15:50:17.881Z,97611.07
2019-05-13T15:52:44.161Z,97612.44
2019-05-13T15:55:11.983Z,97612.54
2019-05-13T15:57:38.617Z,97623.14
2019-05-13T16:00:07.257Z,97615.85
2019-05-13T16:02:33.522Z,97609.07
2019-05-13T16:05:02.272Z,97616.59
2019-05-13T16:07:28.237Z,97612.53
2019-05-13T16:09:54.608Z,97608.50
2019-05-13T16:12:21.310Z,97610.45
2019-05-13T16:14:48.057Z,97618.13
2019-05-13T16:17:14.317Z,97611.38
2019-05-13T16:19:42.003Z,97612.98
2019-05-13T16:22:08.625Z,97612.09
2019-05-13T16:24:34.839Z,97614.77
2019-05-13T16:27:02.478Z,97609.48
2019-05-13T16:29:31.514Z,97616.45
2019-05-13T16:31:58.168Z,97604.70
2019-05-13T16:34:24.457Z,97608.31
2019-05-13T16:36:53.036Z,97606.90
2019-05-13T16:39:21.100Z,97604.16
2019-05-13T16:41:47.032Z,97606.44
2019-05-13T16:44:13.319Z,97601.45
2019-05-13T16:46:42.560Z,97598.96
2019-05-13T16:49:08.577Z,97602.07
2019-05-13T16:51:34.821Z,97601.19
2019-05-13T16:54:01.051Z,97612.61
2019-05-13T16:56:30.371Z,97603.05
2019-05-13T16:58:55.491Z,97603.11
2019-05-13T17:01:22.066Z,97599.48
2019-05-13T17:03:48.417Z,97597.05
2019-05-13T17:06:14.586Z,97598.31
2019-05-13T17:08:42.462Z,97597.64
2019-05-13T17:11:11.545Z,97602.66
2019-05-13T17:13:37.463Z,97595.16
2019-05-13T17:16:04.047Z,97597.08
2019-05-13T17:18:32.327Z,97597.52
2019-05-13T17:20:58.535Z,97602.16
2019-05-13T17:23:24.774Z,97597.47
2019-05-13T17:25:51.990Z,97592.85
2019-05-13T17:28:18.384Z,97593.94
2019-05-13T17:30:44.679Z,97591.42
2019-05-13T17:33:11.771Z,97585.77
2019-05-13T17:35:38.360Z,97593.06
2019-05-13T17:38:04.872Z,97590.58
2019-05-13T17:40:31.552Z,97599.08
2019-05-13T17:42:59.927Z,97594.00
2019-05-13T17:45:26.251Z,97588.84
2019-05-13T17:47:52.424Z,97597.38
2019-05-13T17:50:18.756Z,97595.99
2019-05-13T17:52:44.897Z,97599.21
2019-05-13T17:55:11.875Z,97595.98
2019-05-13T17:57:38.236Z,97595.70
2019-05-13T18:00:05.906Z,97593.25
2019-05-13T18:02:32.166Z,97594.33
2019-05-13T18:04:58.418Z,97585.44
2019-05-13T18:07:24.726Z,97592.58
2019-05-13T18:09:52.050Z,97599.05
2019-05-13T18:12:19.087Z,97596.82
2019-05-13T18:14:45.514Z,97593.02
2019-05-13T18:17:12.513Z,97595.30
2019-05-13T18:19:38.976Z,97589.99
2019-05-13T18:22:05.300Z,97594.81
2019-05-13T18:24:32.164Z,97599.16
2019-05-13T18:26:58.549Z,97602.53
2019-05-13T18:29:24.657Z,97600.69
2019-05-13T18:31:52.430Z,97595.25
2019-05-13T18:34:18.824Z,97600.77
2019-05-13T18:36:45.035Z,97602.16
2019-05-13T18:39:12.412Z,97601.26
2019-05-13T18:41:41.208Z,97600.36
2019-05-13T18:44:06.941Z,97595.11
2019-05-13T18:46:33.250Z,97593.48
2019-05-13T18:49:02.063Z,97595.59
2019-05-13T18:51:27.926Z,97601.25
2019-05-13T18:53:54.184Z,97595.62
2019-05-13T18:56:21.933Z,97593.87
2019-05-13T18:58:48.055Z,97598.93
2019-05-13T19:01:14.362Z,97593.30
2019-05-13T19:03:41.419Z,97596.66
2019-05-13T19:06:07.795Z,97597.27
2019-05-13T19:08:34.113Z,97600.75
2019-05-13T19:11:01.140Z,97594.86
2019-05-13T19:13:27.699Z,97592.34
2019-05-13T19:15:53.998Z,97600.58
2019-05-13T19:18:21.480Z,97602.48
2019-05-13T19:20:47.866Z,97597.55
2019-05-13T19:23:14.099Z,97598.23
2019-05-13T19:25:42.756Z,97597.70
2019-05-13T19:28:08.354Z,97599.63
2019-05-13T19:30:34.501Z,97594.02
2019-05-13T19:33:01.361Z,97599.38
2019-05-13T19:35:27.715Z,97593.56
2019-05-13T19:37:53.902Z,97591.13
2019-05-13T19:40:22.044Z,97588.05
2019-05-13T19:42:48.306Z,97589.12
2019-05-13T19:45:15.628Z,97598.89
2019-05-13T19:47:42.076Z,97596.22
2019-05-13T19:50:08.664Z,97600.91
2019-05-13T19:52:34.948Z,97592.58
2019-05-13T19:55:04.125Z,97593.00
2019-05-13T19:57:31.723Z,97588.53
2019-05-13T19:59:58.182Z,97587.81
2019-05-13T20:02:24.409Z,97586.63
2019-05-13T20:04:51.865Z,97583.22
2019-05-13T20:07:18.517Z,97578.83
2019-05-13T20:09:44.836Z,97580.00
2019-05-13T20:12:11.365Z,97574.95
2019-05-13T20:14:37.902Z,97581.06
2019-05-13T20:17:04.214Z,97580.81
2019-05-13T20:19:46.150Z,97577.64
2019-05-13T20:22:02.208Z,97574.69
2019-05-13T20:24:28.232Z,97579.03
2019-05-13T20:26:54.410Z,97572.92
2019-05-13T20:29:20.670Z,97576.61
2019-05-13T20:31:48.120Z,97574.63
2019-05-13T20:34:14.243Z,97565.27
2019-05-13T20:36:42.322Z,97571.48
2019-05-13T20:39:08.708Z,97565.38
2019-05-13T20:41:35.076Z,97567.94
2019-05-13T20:44:01.634Z,97566.45
2019-05-13T20:46:27.888Z,97566.06
2019-05-13T20:48:54.132Z,97559.06
2019-05-13T20:51:22.010Z,97560.01
2019-05-13T20:53:48.250Z,97558.23
2019-05-13T20:56:14.415Z,97556.75
2019-05-13T20:58:42.164Z,97559.37
2019-05-13T21:01:08.498Z,97556.94
2019-05-13T21:03:34.639Z,97558.16
2019-05-13T21:06:00.819Z,97555.98
2019-05-13T21:08:27.028Z,97559.75
2019-05-13T21:10:53.319Z,97549.83
2019-05-13T21:13:21.191Z,97549.06
2019-05-13T21:15:47.468Z,97553.78
2019-05-13T21:18:13.687Z,97557.52
2019-05-13T21:20:40.971Z,97556.10
2019-05-13T21:23:07.287Z,97553.78
2019-05-13T21:25:33.529Z,97552.36
2019-05-13T21:28:01.963Z,97547.22
2019-05-13T21:30:27.902Z,97538.28
2019-05-13T21:32:54.119Z,97541.09
2019-05-13T21:35:21.197Z,97547.34
2019-05-13T21:37:47.607Z,97547.77
2019-05-13T21:40:16.120Z,97545.11
2019-05-13T21:42:42.221Z,97541.66
2019-05-13T21:45:10.991Z,97539.95
2019-05-13T21:47:36.900Z,97539.91
2019-05-13T21:50:05.116Z,97540.92
2019-05-13T21:52:32.353Z,97538.95
2019-05-13T21:54:58.658Z,97531.98
2019-05-13T21:57:24.975Z,97528.29
2019-05-13T21:59:51.590Z,97528.69
2019-05-13T22:02:17.931Z,97531.87
2019-05-13T22:04:44.085Z,97528.59
2019-05-13T22:07:12.195Z,97529.55
2019-05-13T22:09:38.303Z,97526.11
2019-05-13T22:12:04.534Z,97525.76
2019-05-13T22:14:32.041Z,97523.98
2019-05-13T22:16:58.471Z,97528.88
2019-05-13T22:19:24.716Z,97521.55
2019-05-13T22:21:51.555Z,97520.34
2019-05-13T22:24:17.825Z,97523.43
2019-05-13T22:26:45.554Z,97523.43
2019-05-13T22:29:12.345Z,97525.14
2019-05-13T22:31:38.499Z,97521.72
2019-05-13T22:34:04.949Z,97528.28
2019-05-13T22:36:31.767Z,97519.44
2019-05-13T22:38:58.167Z,97523.74
2019-05-13T22:41:24.376Z,97521.50
2019-05-13T22:43:58.236Z,97520.55
2019-05-13T22:46:18.607Z,97518.28
2019-05-13T22:48:44.881Z,97514.44
2019-05-13T22:51:11.786Z,97512.41
2019-05-13T22:53:38.283Z,97504.62
2019-05-13T22:56:04.749Z,97502.66
2019-05-13T22:58:32.163Z,97507.27
2019-05-13T23:00:58.536Z,97506.54
2019-05-13T23:03:24.745Z,97513.27
2019-05-13T23:05:52.313Z,97510.08
2019-05-13T23:08:18.479Z,97504.52
2019-05-13T23:10:44.687Z,97504.02
2019-05-13T23:13:10.827Z,97498.81
2019-05-13T23:15:37.027Z,97503.66
2019-05-13T23:18:03.237Z,97499.88
2019-05-13T23:20:31.596Z,97499.41
2019-05-13T23:22:57.555Z,97499.88
2019-05-13T23:25:23.785Z,97493.79
2019-05-13T23:27:51.354Z,97488.33
2019-05-13T23:30:17.693Z,97490.64
2019-05-13T23:32:43.815Z,97492.42
2019-05-13T23:35:11.172Z,97485.48
2019-05-13T23:37:37.562Z,97483.84
2019-05-13T23:40:07.148Z,97478.84
2019-05-13T23:42:33.310Z,97474.75
2019-05-13T23:44:59.489Z,97471.06
2019-05-13T23:47:25.664Z,97475.97
2019-05-13T23:49:51.884Z,97469.61
2019-05-13T23:52:17.988Z,97471.89
2019-05-13T23:54:44.197Z,97465.92
2019-05-13T23:57:11.749Z,97467.36
2019-05-13T23:59:38.154Z,97468.61
